Time;durP1;ratioP1;P1;durP2;ratioP2;P2;SDS_P1;SDS_P2;PMS_P1;PMS_P2;Temp;Humidity;BMP_temperature;BMP_pressure;BME280_temperature;BME280_humidity;BME280_pressure;Samples;Min_cycle;Max_cycle;Signal;HPM_P1;HPM_P2
2023/04/22 00:01:39;;;;;;;7.63;4.22;;;;;;;22.20;43.61;95770.06;4968328;28;20549;-58
2023/04/22 00:04:10;;;;;;;10.55;4.70;;;;;;;21.95;43.88;95775.63;4962992;28;20070;-60
2023/04/22 00:06:38;;;;;;;7.65;4.18;;;;;;;22.11;44.00;95776.00;4962225;28;20097;-62
2023/04/22 00:09:06;;;;;;;7.22;3.60;;;;;;;22.12;44.19;95774.94;4965422;28;20078;-60
2023/04/22 00:11:35;;;;;;;7.82;4.55;;;;;;;22.56;42.94;95761.94;4972897;28;20086;-59
2023/04/22 00:14:03;;;;;;;8.77;4.65;;;;;;;22.48;42.72;95771.19;4972374;28;20144;-58
2023/04/22 00:16:31;;;;;;;7.97;4.68;;;;;;;22.52;42.74;95762.41;4972297;28;20112;-56
2023/04/22 00:19:00;;;;;;;6.43;3.90;;;;;;;22.59;42.66;95767.66;4963342;28;20090;-59
2023/04/22 00:21:29;;;;;;;6.38;4.10;;;;;;;22.62;42.53;95772.56;4962649;28;20098;-58
2023/04/22 00:23:58;;;;;;;9.03;4.40;;;;;;;22.49;42.43;95767.44;4972563;28;20097;-57
2023/04/22 00:29:08;;;;;;;8.73;4.53;;;;;;;22.11;43.30;95773.31;5446360;23;20055;-59
2023/04/22 00:31:36;;;;;;;6.88;4.50;;;;;;;22.13;43.16;95773.91;4971654;28;20552;-56
2023/04/22 00:34:04;;;;;;;7.38;4.30;;;;;;;22.10;43.15;95771.69;4968386;28;20537;-55
2023/04/22 00:36:34;;;;;;;7.28;4.30;;;;;;;22.15;43.30;95769.13;4972071;28;20093;-53
2023/04/22 00:39:02;;;;;;;7.80;4.18;;;;;;;22.16;43.60;95766.22;4964875;28;20561;-53
2023/04/22 00:41:31;;;;;;;6.97;4.93;;;;;;;22.26;43.26;95773.66;4953479;28;20078;-56
2023/04/22 00:44:00;;;;;;;8.65;4.35;;;;;;;22.25;43.28;95770.16;4958764;28;20486;-58
2023/04/22 00:46:29;;;;;;;7.82;4.45;;;;;;;22.14;43.72;95773.66;4944475;28;20090;-53
2023/04/22 00:48:57;;;;;;;6.60;4.07;;;;;;;21.44;44.68;95771.72;4958505;28;20089;-55
2023/04/22 00:51:26;;;;;;;10.00;4.80;;;;;;;;;;4954768;28;20106;-51
2023/04/22 00:53:56;;;;;;;8.95;5.35;;;;;;;21.16;46.46;95768.78;4962017;28;20518;-55
2023/04/22 00:56:26;;;;;;;8.55;4.82;;;;;;;20.98;46.67;95766.97;4957548;28;20075;-56
2023/04/22 00:58:55;;;;;;;9.13;4.82;;;;;;;21.12;46.04;95759.56;4949648;28;20093;-55
2023/04/22 01:01:23;;;;;;;7.95;4.80;;;;;;;20.98;45.97;95762.44;4947923;28;20090;-54
2023/04/22 01:03:52;;;;;;;7.25;4.60;;;;;;;20.89;46.45;95769.16;4964178;28;20083;-51
2023/04/22 01:06:22;;;;;;;8.57;4.75;;;;;;;20.62;47.38;95766.81;4955954;28;20081;-55
2023/04/22 01:08:50;;;;;;;8.02;4.70;;;;;;;20.85;46.70;95766.13;4957643;28;20082;-50
2023/04/22 01:11:20;;;;;;;10.43;4.97;;;;;;;21.29;46.31;95758.69;4952965;28;20094;-57
2023/04/22 01:13:49;;;;;;;9.68;4.70;;;;;;;21.28;45.18;95757.06;4952451;28;20475;-51
2023/04/22 01:16:17;;;;;;;10.07;4.60;;;;;;;21.35;45.27;95762.38;4958457;28;20077;-51
2023/04/22 01:18:45;;;;;;;8.45;4.38;;;;;;;21.27;45.71;95762.66;4952559;28;20071;-56
2023/04/22 01:21:14;;;;;;;7.95;4.38;;;;;;;21.48;44.99;95759.47;4956870;28;20098;-54
2023/04/22 01:23:44;;;;;;;8.63;4.18;;;;;;;21.63;44.55;95763.59;4946446;28;20090;-50
2023/04/22 01:26:12;;;;;;;9.85;4.60;;;;;;;21.55;44.51;95762.06;4939523;28;20097;-57
2023/04/22 01:28:40;;;;;;;6.38;3.85;;;;;;;21.41;44.63;95764.13;4942737;28;20106;-51
2023/04/22 01:31:09;;;;;;;9.05;4.13;;;;;;;21.30;45.22;95760.34;4959901;28;20526;-52
2023/04/22 01:33:38;;;;;;;8.40;4.93;;;;;;;21.02;46.58;95765.47;4953140;28;20075;-54
2023/04/22 01:36:07;;;;;;;9.55;4.97;;;;;;;20.62;47.48;95760.66;4957865;28;20073;-56
2023/04/22 01:38:38;;;;;;;9.60;4.45;;;;;;;21.07;46.19;95765.63;4949745;28;20063;-55
2023/04/22 01:41:08;;;;;;;8.48;4.70;;;;;;;21.36;45.60;95750.56;4941524;28;20496;-54
2023/04/22 01:43:36;;;;;;;10.07;4.27;;;;;;;21.20;45.17;95756.59;4953281;28;20087;-56
2023/04/22 01:46:05;;;;;;;7.35;4.53;;;;;;;21.29;45.69;95757.88;4958439;28;20503;-54
2023/04/22 01:48:34;;;;;;;9.20;4.38;;;;;;;21.18;45.20;95758.66;4952954;28;20102;-51
2023/04/22 01:51:03;;;;;;;9.10;4.45;;;;;;;21.10;45.43;95768.66;4960446;28;20460;-56
2023/04/22 01:53:31;;;;;;;13.32;4.80;;;;;;;;;;4950894;28;20466;-54
2023/04/22 01:55:59;;;;;;;7.82;4.70;;;;;;;20.42;47.01;95779.59;4954582;28;20142;-56
2023/04/22 01:58:30;;;;;;;15.75;5.20;;;;;;;20.18;48.92;95767.09;4963389;28;20085;-53
2023/04/22 02:00:59;;;;;;;7.80;4.70;;;;;;;19.68;49.85;95766.09;4955997;28;20144;-52
2023/04/22 02:03:27;;;;;;;8.90;5.20;;;;;;;19.20;53.08;95755.94;4954346;28;20093;-56
2023/04/22 02:05:56;;;;;;;9.32;4.93;;;;;;;19.68;52.56;95765.25;4955246;28;20768;-59
2023/04/22 02:08:24;;;;;;;10.70;5.40;;;;;;;19.25;54.13;95759.81;4957120;28;20086;-57
2023/04/22 02:10:53;;;;;;;10.20;5.20;;;;;;;19.49;54.28;95763.56;4964783;28;20094;-52
2023/04/22 02:13:22;;;;;;;9.55;5.15;;;;;;;20.29;50.58;95764.47;4952253;28;20097;-54
2023/04/22 02:15:52;;;;;;;11.05;5.20;;;;;;;19.96;52.10;95767.50;4958096;28;20075;-53
2023/04/22 02:18:21;;;;;;;9.98;5.32;;;;;;;20.54;49.33;95771.66;4946690;28;20094;-54
2023/04/22 02:20:49;;;;;;;8.15;4.53;;;;;;;20.13;49.62;95776.59;4955784;28;20110;-56
2023/04/22 02:23:18;;;;;;;8.57;5.00;;;;;;;18.87;52.13;95788.19;4952132;28;20094;-52
2023/04/22 02:25:49;;;;;;;8.88;4.30;;;;;;;18.30;57.42;95786.31;4963462;28;20544;-54
2023/04/22 02:28:18;;;;;;;8.82;4.70;;;;;;;19.31;54.34;95783.84;4958722;28;20088;-48
2023/04/22 02:30:46;;;;;;;7.53;4.65;;;;;;;19.62;53.47;95777.63;4947095;28;20082;-54
2023/04/22 02:33:16;;;;;;;6.22;4.70;;;;;;;19.67;52.39;95780.50;4952254;28;20082;-55
2023/04/22 02:35:44;;;;;;;12.60;5.18;;;;;;;18.99;54.96;95777.63;4954515;28;20067;-54
2023/04/22 02:38:12;;;;;;;6.90;4.70;;;;;;;18.55;58.58;95787.28;4959164;28;20074;-56
2023/04/22 02:40:41;;;;;;;8.70;5.05;;;;;;;18.39;60.53;95783.19;4964849;28;20835;-53
2023/04/22 02:43:09;;;;;;;9.43;5.60;;;;;;;19.33;55.68;95772.91;4965160;28;20086;-54
2023/04/22 02:45:39;;;;;;;7.90;5.13;;;;;;;19.49;53.79;95779.59;4945968;28;20090;-52
2023/04/22 02:48:07;;;;;;;10.63;5.10;;;;;;;19.82;52.13;95776.66;4963264;28;20082;-57
2023/04/22 02:50:37;;;;;;;9.23;5.53;;;;;;;20.01;51.35;95777.53;4947820;28;20187;-55
2023/04/22 02:53:06;;;;;;;12.13;4.43;;;;;;;19.99;50.65;95772.38;4963669;28;20089;-58
2023/04/22 02:55:34;;;;;;;10.07;5.28;;;;;;;19.81;50.83;95767.00;4954491;28;20095;-52
2023/04/22 02:58:02;;;;;;;10.93;5.43;;;;;;;19.54;52.22;95769.06;4938832;28;20419;-54
2023/04/22 03:00:31;;;;;;;13.35;5.10;;;;;;;19.71;51.40;95764.81;4943480;28;20514;-54
2023/04/22 03:02:59;;;;;;;8.85;5.57;;;;;;;19.26;53.79;95775.63;4951089;28;20550;-53
2023/04/22 03:05:28;;;;;;;9.02;5.15;;;;;;;19.76;52.17;95770.34;4951774;28;20087;-57
2023/04/22 03:07:57;;;;;;;10.10;5.75;;;;;;;19.87;51.77;95764.28;4946596;28;20075;-54
2023/04/22 03:10:25;;;;;;;9.73;5.50;;;;;;;19.57;52.22;95761.41;4950202;28;20464;-58
2023/04/22 03:12:54;;;;;;;9.15;5.72;;;;;;;19.54;52.76;95763.69;4941072;28;20150;-55
2023/04/22 03:15:22;;;;;;;14.13;5.82;;;;;;;19.81;52.04;95762.47;4952821;28;20562;-57
2023/04/22 03:17:51;;;;;;;10.52;6.18;;;;;;;19.60;52.08;95757.50;4958414;28;20482;-54
2023/04/22 03:20:19;;;;;;;9.27;4.90;;;;;;;19.78;49.27;95756.75;4959561;28;20100;-52
2023/04/22 03:22:48;;;;;;;8.23;4.75;;;;;;;19.65;48.44;95763.03;4960766;28;20083;-58
2023/04/22 03:25:17;;;;;;;6.30;4.30;;;;;;;19.59;48.40;95756.69;4939574;28;20086;-57
2023/04/22 03:27:45;;;;;;;6.47;3.78;;;;;;;19.35;48.19;95768.19;4948133;28;20079;-55
2023/04/22 03:30:14;;;;;;;7.22;4.53;;;;;;;18.89;49.69;95754.06;4966633;28;20086;-57
2023/04/22 03:32:42;;;;;;;8.15;4.60;;;;;;;17.85;55.21;95768.31;4953596;28;20066;-57
2023/04/22 03:35:11;;;;;;;7.50;4.72;;;;;;;18.50;56.40;95761.19;4958482;28;20090;-54
2023/04/22 03:37:39;;;;;;;11.45;5.40;;;;;;;17.72;60.17;95765.63;4947078;28;20078;-56
2023/04/22 03:40:09;;;;;;;10.18;5.60;;;;;;;17.90;60.33;95765.88;4957996;28;20082;-55
2023/04/22 03:42:41;;;;;;;9.07;5.05;;;;;;;18.70;55.81;95765.63;4958444;28;20113;-56
2023/04/22 03:45:10;;;;;;;8.35;4.78;;;;;;;18.79;52.45;95775.09;4950408;28;20085;-55
2023/04/22 03:47:39;;;;;;;9.27;4.63;;;;;;;18.71;50.09;95773.44;4958834;28;20079;-55
2023/04/22 03:50:07;;;;;;;8.15;4.22;;;;;;;18.62;50.31;95768.56;4948096;28;20086;-52
2023/04/22 03:52:36;;;;;;;8.15;4.45;;;;;;;18.38;51.93;95772.75;4954559;28;20097;-55
2023/04/22 03:55:05;;;;;;;6.55;4.13;;;;;;;18.33;50.82;95772.53;4952654;28;20573;-56
2023/04/22 03:57:33;;;;;;;7.70;4.25;;;;;;;18.37;51.25;95771.09;4955665;28;22144;-57
2023/04/22 04:00:03;;;;;;;9.63;4.30;;;;;;;18.35;51.55;95773.97;4955644;28;20098;-57
2023/04/22 04:02:31;;;;;;;7.68;4.35;;;;;;;17.94;53.11;95776.94;4952325;28;20083;-57
2023/04/22 04:05:00;;;;;;;8.38;5.30;;;;;;;17.67;55.84;95774.25;4943555;28;20075;-55
2023/04/22 04:07:29;;;;;;;6.63;4.73;;;;;;;18.24;53.61;95777.31;4953108;28;20066;-55
2023/04/22 04:09:57;;;;;;;7.95;5.10;;;;;;;18.33;53.55;95775.22;4956941;28;20083;-56
2023/04/22 04:12:26;;;;;;;10.18;4.90;;;;;;;18.34;52.93;95774.19;4953556;28;20162;-56
2023/04/22 04:14:54;;;;;;;8.30;4.68;;;;;;;18.26;51.98;95781.38;4956351;28;20509;-53
2023/04/22 04:17:24;;;;;;;10.18;4.65;;;;;;;18.26;53.73;95775.22;4961045;28;20078;-54
2023/04/22 04:19:53;;;;;;;7.25;4.35;;;;;;;18.44;52.81;95782.56;4961699;28;20086;-55
2023/04/22 04:22:22;;;;;;;7.40;4.63;;;;;;;18.05;54.77;95783.50;4952736;28;20086;-56
2023/04/22 04:24:51;;;;;;;8.52;4.82;;;;;;;18.45;53.29;95774.34;4960804;28;20108;-56
2023/04/22 04:27:19;;;;;;;9.05;4.38;;;;;;;17.99;54.35;95780.59;4954176;28;20541;-52
2023/04/22 04:29:48;;;;;;;7.20;4.53;;;;;;;18.03;54.57;95778.34;4955152;28;20074;-54
2023/04/22 04:32:17;;;;;;;8.48;4.90;;;;;;;18.42;53.07;95781.97;4956229;28;20079;-58
2023/04/22 04:34:47;;;;;;;9.20;4.93;;;;;;;18.61;52.27;95785.59;4961093;28;20070;-59
2023/04/22 04:37:16;;;;;;;8.10;4.93;;;;;;;18.61;51.82;95781.06;4956901;28;20075;-52
2023/04/22 04:39:46;;;;;;;10.77;5.32;;;;;;;18.30;51.75;95780.97;4939554;28;20478;-56
2023/04/22 04:42:14;;;;;;;9.32;5.47;;;;;;;17.71;54.75;95780.81;4957208;28;20085;-51
2023/04/22 04:44:42;;;;;;;9.80;5.80;;;;;;;17.29;58.14;95785.50;4954562;28;20090;-50
2023/04/22 04:47:11;;;;;;;13.00;5.68;;;;;;;17.94;56.90;95775.09;4958335;28;20086;-55
2023/04/22 04:49:40;;;;;;;8.30;5.72;;;;;;;17.96;57.57;95769.53;4951520;28;20479;-56
2023/04/22 04:52:10;;;;;;;11.88;6.72;;;;;;;17.88;60.51;95778.59;4954386;28;20087;-56
2023/04/22 04:54:39;;;;;;;13.00;7.15;;;;;;;17.94;59.19;95785.75;4957176;28;20054;-53
2023/04/22 04:57:08;;;;;;;11.80;7.22;;;;;;;18.37;58.43;95777.25;4954160;28;20085;-55
2023/04/22 04:59:37;;;;;;;15.85;7.70;;;;;;;18.65;57.45;95771.63;4959987;28;20097;-52
2023/04/22 05:02:05;;;;;;;15.73;7.88;;;;;;;19.28;55.43;95768.22;4964613;28;20087;-57
2023/04/22 05:04:34;;;;;;;12.82;7.75;;;;;;;19.84;53.20;95763.91;4960727;28;20462;-55
2023/04/22 05:07:03;;;;;;;10.20;6.97;;;;;;;20.44;51.11;95766.81;4949543;28;20087;-55
2023/04/22 05:09:36;;;;;;;12.30;6.88;;;;;;;22.11;45.95;95765.25;4948429;28;20498;-56
2023/04/22 05:12:05;;;;;;;8.68;5.05;;;;;;;22.28;43.54;95766.19;4951522;28;20090;-57
2023/04/22 05:14:33;;;;;;;7.78;4.85;;;;;;;22.22;42.74;95767.13;4940675;28;20098;-53
2023/04/22 05:17:02;;;;;;;7.93;4.88;;;;;;;22.14;42.58;95781.72;4950878;28;20102;-55
2023/04/22 05:19:30;;;;;;;10.65;4.85;;;;;;;22.20;42.44;95774.63;4950875;28;20492;-56
2023/04/22 05:21:58;;;;;;;6.72;5.40;;;;;;;22.30;42.18;95782.06;4950817;28;20102;-53
2023/04/22 05:24:27;;;;;;;6.68;4.47;;;;;;;22.24;42.11;95784.66;4951394;28;20094;-57
2023/04/22 05:26:57;;;;;;;5.32;3.78;;;;;;;22.14;42.78;95787.09;4959165;28;20091;-55
2023/04/22 05:29:25;;;;;;;12.77;6.85;;;;;;;21.99;44.27;95794.78;4960559;28;20692;-58
2023/04/22 05:31:53;;;;;;;9.43;5.88;;;;;;;21.80;45.51;95797.56;4959418;28;20090;-55
2023/04/22 05:34:22;;;;;;;9.48;5.60;;;;;;;21.81;45.91;95796.50;4960886;28;20075;-55
2023/04/22 05:36:50;;;;;;;14.00;6.05;;;;;;;21.28;48.45;95799.16;4959428;28;20106;-51
2023/04/22 05:39:18;;;;;;;9.18;6.05;;;;;;;20.67;50.52;95805.50;4955884;28;20094;-55
2023/04/22 05:41:47;;;;;;;9.38;6.00;;;;;;;20.44;52.73;95796.25;4961368;28;20087;-55
2023/04/22 05:44:17;;;;;;;9.95;7.05;;;;;;;19.52;56.62;95800.56;4957634;28;20098;-57
2023/04/22 05:46:45;;;;;;;10.65;6.03;;;;;;;20.51;53.28;95794.38;4963532;28;20089;-57
2023/04/22 05:49:13;;;;;;;10.07;5.82;;;;;;;20.01;55.59;95798.94;4955263;28;20100;-53
2023/04/22 05:51:42;;;;;;;10.45;5.75;;;;;;;20.04;56.79;95791.28;4960025;28;20581;-56
2023/04/22 05:54:10;;;;;;;9.65;5.30;;;;;;;20.61;52.54;95788.47;4960159;28;20533;-54
2023/04/22 05:56:39;;;;;;;10.95;5.57;;;;;;;20.89;51.83;95795.97;4966071;28;20097;-55
2023/04/22 05:59:08;;;;;;;7.88;5.30;;;;;;;21.66;49.87;95779.22;4957053;28;20085;-52
2023/04/22 06:01:37;;;;;;;7.15;4.55;;;;;;;21.57;47.84;95789.47;4959018;28;20091;-55
2023/04/22 06:04:05;;;;;;;5.60;3.65;;;;;;;20.80;48.88;95794.63;4963367;28;20139;-54
2023/04/22 06:06:34;;;;;;;6.05;3.30;;;;;;;22.18;45.19;95788.28;4961565;28;20117;-56
2023/04/22 06:09:03;;;;;;;4.30;3.10;;;;;;;21.46;45.37;95793.75;4963803;28;20113;-54
2023/04/22 06:11:31;;;;;;;6.88;3.03;;;;;;;22.51;43.03;95794.91;4954484;28;20089;-58
2023/04/22 06:14:00;;;;;;;4.28;2.72;;;;;;;22.54;43.47;95797.13;4961234;28;20079;-57
2023/04/22 06:16:28;;;;;;;3.33;2.42;;;;;;;21.93;42.71;95814.50;4959954;28;20491;-55
2023/04/22 06:18:58;;;;;;;4.85;3.17;;;;;;;21.82;43.98;95813.44;4961528;28;20529;-58
2023/04/22 06:21:27;;;;;;;3.70;2.50;;;;;;;22.25;43.16;95809.66;4954956;28;20087;-52
2023/04/22 06:23:55;;;;;;;2.97;2.35;;;;;;;21.80;43.63;95810.97;4952448;28;20090;-52
2023/04/22 06:26:24;;;;;;;4.90;3.10;;;;;;;21.54;44.56;95816.75;4961217;28;20087;-53
2023/04/22 06:28:52;;;;;;;4.90;2.90;;;;;;;22.69;42.79;95810.88;4953848;28;20082;-55
2023/04/22 06:31:21;;;;;;;4.35;2.88;;;;;;;23.11;42.75;95808.00;4960754;28;20102;-59
2023/04/22 06:33:49;;;;;;;3.88;2.83;;;;;;;23.54;41.80;95806.66;4955782;28;20531;-57
2023/04/22 06:36:19;;;;;;;5.03;3.15;;;;;;;24.17;40.99;95804.72;4964209;28;20086;-52
2023/04/22 06:38:47;;;;;;;8.52;3.50;;;;;;;23.46;41.33;95825.84;4960953;28;20078;-58
2023/04/22 06:41:16;;;;;;;5.38;3.25;;;;;;;23.06;41.71;95821.34;4962420;28;20074;-53
2023/04/22 06:43:45;;;;;;;4.95;3.13;;;;;;;24.35;40.61;95819.81;4959328;28;20087;-58
2023/04/22 06:46:13;;;;;;;5.00;3.42;;;;;;;24.25;40.11;95819.66;4966887;28;20086;-57
2023/04/22 06:48:41;;;;;;;5.50;2.95;;;;;;;24.60;40.38;95822.06;4952804;28;20535;-59
2023/04/22 06:51:10;;;;;;;4.20;3.28;;;;;;;23.80;41.22;95815.19;4951410;28;20083;-55
2023/04/22 06:53:39;;;;;;;4.60;3.05;;;;;;;22.56;43.39;95821.88;4958442;28;20094;-55
2023/04/22 06:56:08;;;;;;;4.17;3.20;;;;;;;24.77;40.55;95814.75;4954632;28;20083;-57
2023/04/22 06:58:36;;;;;;;4.45;2.63;;;;;;;22.60;42.50;95825.72;4953810;28;20082;-56
2023/04/22 07:01:05;;;;;;;6.22;2.47;;;;;;;23.57;42.33;95816.94;4957415;28;20086;-57
2023/04/22 07:03:33;;;;;;;3.90;2.80;;;;;;;24.53;40.55;95824.94;4956824;28;20094;-57
2023/04/22 07:06:01;;;;;;;5.10;2.53;;;;;;;24.36;41.12;95821.44;4954895;28;20086;-59
2023/04/22 07:08:30;;;;;;;5.15;2.53;;;;;;;25.38;39.54;95821.97;4958169;28;20082;-54
2023/04/22 07:10:59;;;;;;;3.33;2.30;;;;;;;25.14;38.25;95824.16;4954029;28;20087;-58
2023/04/22 07:13:28;;;;;;;4.93;2.27;;;;;;;24.42;39.71;95825.06;4955270;28;20087;-56
2023/04/22 07:15:56;;;;;;;3.33;2.28;;;;;;;24.05;40.25;95820.97;4955595;28;20075;-51
2023/04/22 07:18:24;;;;;;;3.78;2.60;;;;;;;24.37;39.21;95815.00;4961565;28;20083;-54
2023/04/22 07:20:52;;;;;;;3.20;2.20;;;;;;;24.66;39.16;95814.88;4953009;28;20110;-56
2023/04/22 07:23:21;;;;;;;4.63;2.30;;;;;;;24.22;40.26;95814.75;4961315;28;20075;-55
2023/04/22 07:25:49;;;;;;;3.00;1.95;;;;;;;24.28;39.97;95819.97;4953554;28;20083;-50
2023/04/22 07:28:19;;;;;;;3.33;1.83;;;;;;;24.56;39.53;95818.25;4961802;28;20550;-55
2023/04/22 07:30:47;;;;;;;3.87;1.80;;;;;;;25.31;38.85;95804.09;4958290;28;20071;-53
2023/04/22 07:33:15;;;;;;;4.40;2.10;;;;;;;24.76;40.18;95806.94;4953840;28;20538;-54
2023/04/22 07:35:44;;;;;;;3.85;2.30;;;;;;;25.42;38.08;95807.72;4959306;28;20091;-53
2023/04/22 07:38:12;;;;;;;3.25;2.47;;;;;;;24.67;40.25;95798.44;4956536;28;20085;-53
2023/04/22 07:40:41;;;;;;;5.68;3.22;;;;;;;25.93;38.67;95791.19;4957498;28;20460;-57
2023/04/22 07:43:10;;;;;;;6.60;2.70;;;;;;;25.76;38.32;95786.72;4957688;28;20083;-51
2023/04/22 07:45:39;;;;;;;3.53;2.17;;;;;;;26.20;38.24;95789.25;4961708;28;20482;-51
2023/04/22 07:48:08;;;;;;;5.90;2.72;;;;;;;26.66;36.95;95796.84;4953647;28;20577;-56
2023/04/22 07:50:36;;;;;;;4.20;2.50;;;;;;;26.64;36.92;95794.41;4957897;28;20106;-57
2023/04/22 07:53:06;;;;;;;5.87;2.60;;;;;;;27.20;35.76;95785.72;4952316;28;20719;-57
2023/04/22 07:55:34;;;;;;;3.53;2.50;;;;;;;26.75;36.23;95790.69;4962488;28;20906;-55
2023/04/22 07:58:05;;;;;;;3.65;2.30;;;;;;;26.62;37.29;95791.16;4959060;28;20082;-54
2023/04/22 08:00:34;;;;;;;3.42;2.03;;;;;;;26.81;36.91;95782.59;4952983;28;20074;-55
2023/04/22 08:03:04;;;;;;;7.35;2.10;;;;;;;26.52;37.24;95788.38;4959696;28;20078;-57
2023/04/22 08:05:32;;;;;;;4.57;2.40;;;;;;;27.41;36.31;95787.41;4958720;28;20186;-56
2023/04/22 08:08:01;;;;;;;4.32;2.67;;;;;;;26.72;37.53;95788.50;4958742;28;20530;-52
2023/04/22 08:10:29;;;;;;;5.65;2.00;;;;;;;27.26;36.98;95786.56;4959159;28;20082;-51
2023/04/22 08:12:57;;;;;;;3.88;2.13;;;;;;;26.41;37.71;95792.91;4964515;28;20073;-51
2023/04/22 08:15:26;;;;;;;3.72;1.67;;;;;;;27.05;35.99;95789.19;4957989;28;20086;-51
2023/04/22 08:17:54;;;;;;;5.03;1.95;;;;;;;26.55;36.73;95790.56;4942226;28;20074;-54
2023/04/22 08:20:24;;;;;;;3.65;1.90;;;;;;;26.45;36.80;95794.00;4955941;28;20074;-54
2023/04/22 08:22:57;;;;;;;2.60;1.80;;;;;;;28.16;34.57;95787.75;4961487;28;20090;-51
2023/04/22 08:25:25;;;;;;;3.63;1.75;;;;;;;26.85;35.59;95791.81;4959524;28;20097;-57
2023/04/22 08:27:53;;;;;;;3.22;1.77;;;;;;;26.80;35.54;95799.88;4963662;28;20083;-54
2023/04/22 08:30:22;;;;;;;2.35;1.73;;;;;;;27.97;33.93;95794.00;4957401;28;20079;-54
2023/04/22 08:32:52;;;;;;;3.20;1.85;;;;;;;27.21;35.50;95800.88;4959548;28;20090;-53
2023/04/22 08:35:20;;;;;;;4.05;1.95;;;;;;;28.35;34.67;95787.19;4966895;28;20083;-52
2023/04/22 08:37:50;;;;;;;5.05;1.98;;;;;;;27.37;36.55;95794.44;4956149;28;20075;-52
2023/04/22 08:40:18;;;;;;;3.50;2.47;;;;;;;27.49;36.33;95796.09;4962917;28;20083;-55
2023/04/22 08:42:48;;;;;;;3.22;2.40;;;;;;;28.52;35.46;95789.63;4962101;28;21037;-50
2023/04/22 08:45:18;;;;;;;4.13;2.38;;;;;;;27.77;36.66;95795.63;4965709;28;20087;-53
2023/04/22 08:47:47;;;;;;;3.42;2.40;;;;;;;28.52;35.54;95786.91;4958598;28;20083;-55
2023/04/22 08:50:15;;;;;;;4.00;2.38;;;;;;;29.10;34.84;95795.41;4960731;28;20095;-57
2023/04/22 08:52:44;;;;;;;4.07;2.40;;;;;;;29.19;35.09;95803.81;4960328;28;20089;-55
2023/04/22 08:55:14;;;;;;;4.63;2.80;;;;;;;29.42;34.09;95803.16;4960759;28;20527;-57
2023/04/22 08:57:43;;;;;;;3.65;2.78;;;;;;;28.60;35.16;95800.72;4961416;28;20093;-56
2023/04/22 09:00:12;;;;;;;3.88;2.80;;;;;;;29.58;35.27;95801.13;4956887;28;20488;-51
2023/04/22 09:02:43;;;;;;;3.40;2.80;;;;;;;29.01;34.89;95802.50;4954614;28;20162;-59
2023/04/22 09:05:14;;;;;;;4.13;2.75;;;;;;;30.10;33.54;95786.09;4959871;28;20086;-52
2023/04/22 09:07:42;;;;;;;4.00;3.20;;;;;;;29.25;34.55;95787.22;4960152;28;20113;-55
2023/04/22 09:10:11;;;;;;;4.00;2.78;;;;;;;28.78;35.48;95788.47;4958702;28;20110;-51
2023/04/22 09:12:42;;;;;;;3.80;2.65;;;;;;;29.06;33.99;95783.50;4960376;28;20093;-58
2023/04/22 09:15:12;;;;;;;3.50;2.58;;;;;;;29.51;33.44;95773.47;4963373;28;20079;-54
2023/04/22 09:17:42;;;;;;;5.95;3.08;;;;;;;29.89;33.48;95776.50;4960880;28;20463;-56
2023/04/22 09:20:11;;;;;;;5.60;2.63;;;;;;;30.72;32.80;95773.53;4961628;28;20089;-52
2023/04/22 09:22:42;;;;;;;4.88;3.13;;;;;;;30.49;32.46;95775.16;4961986;28;20094;-57
2023/04/22 09:25:16;;;;;;;4.10;2.65;;;;;;;30.28;33.05;95781.88;4959283;28;20089;-57
2023/04/22 09:27:50;;;;;;;4.22;2.92;;;;;;;30.56;32.13;95765.81;4958591;28;20090;-54
2023/04/22 09:30:19;;;;;;;5.55;3.47;;;;;;;30.18;32.90;95773.81;4961222;28;20093;-56
2023/04/22 09:32:54;;;;;;;6.95;3.20;;;;;;;30.70;32.65;95772.22;4952910;28;20590;-57
2023/04/22 09:35:26;;;;;;;5.55;3.13;;;;;;;29.80;33.52;95774.41;4959982;28;20086;-54
2023/04/22 09:37:54;;;;;;;6.32;3.47;;;;;;;31.15;31.66;95770.06;4955147;28;20090;-58
2023/04/22 09:40:23;;;;;;;4.05;2.92;;;;;;;30.16;32.28;95771.34;4963258;28;20109;-51
2023/04/22 09:42:55;;;;;;;5.43;3.33;;;;;;;29.62;32.40;95777.75;4958531;28;20612;-56
2023/04/22 09:45:28;;;;;;;4.88;2.80;;;;;;;30.45;32.90;95765.91;4934751;28;20134;-54
2023/04/22 09:47:58;;;;;;;6.20;2.75;;;;;;;29.49;33.44;95767.50;4954271;28;20083;-56
2023/04/22 09:50:27;;;;;;;2.67;2.22;;;;;;;30.69;30.78;95763.22;4961735;28;20087;-50
2023/04/22 09:52:58;;;;;;;4.03;3.07;;;;;;;31.34;30.86;95764.66;4951123;28;20113;-54
2023/04/22 09:55:28;;;;;;;3.58;2.45;;;;;;;31.84;30.47;95754.91;4962209;28;20094;-55
2023/04/22 09:57:58;;;;;;;3.88;2.70;;;;;;;31.90;30.41;95756.47;4959068;28;20082;-52
2023/04/22 10:00:28;;;;;;;3.92;2.83;;;;;;;31.74;30.30;95748.81;4955092;28;20647;-53
2023/04/22 10:02:57;;;;;;;3.75;2.72;;;;;;;31.23;30.82;95757.69;4958551;28;20075;-58
2023/04/22 10:05:25;;;;;;;4.07;2.22;;;;;;;29.86;32.04;95755.31;4960919;28;20089;-52
2023/04/22 10:07:54;;;;;;;3.60;2.88;;;;;;;29.61;32.29;95764.47;4966469;28;20094;-56
2023/04/22 10:10:23;;;;;;;3.45;2.35;;;;;;;30.11;31.01;95755.09;4954768;28;20087;-55
2023/04/22 10:12:52;;;;;;;6.45;2.67;;;;;;;31.65;31.16;95748.66;4951318;28;20097;-57
2023/04/22 10:15:22;;;;;;;5.22;2.67;;;;;;;30.89;29.87;95751.31;4949109;28;20071;-56
2023/04/22 10:17:55;;;;;;;3.13;2.25;;;;;;;30.07;30.62;95747.78;4965604;28;20586;-54
2023/04/22 10:20:23;;;;;;;4.23;2.20;;;;;;;29.30;31.47;95749.16;4956806;28;20079;-53
2023/04/22 10:22:53;;;;;;;3.80;2.30;;;;;;;29.91;31.17;95752.56;4954774;28;20067;-56
2023/04/22 10:25:22;;;;;;;3.15;2.30;;;;;;;30.69;30.42;95740.63;4954589;28;20082;-57
2023/04/22 10:27:55;;;;;;;5.97;2.65;;;;;;;30.22;31.82;95732.19;4958777;28;20082;-53
2023/04/22 10:30:31;;;;;;;3.20;2.80;;;;;;;30.17;32.54;95734.09;4951969;28;20086;-54
2023/04/22 10:33:37;;;;;;;3.55;2.65;;;;;;;29.78;31.56;95729.56;4931387;28;20067;-56
2023/04/22 10:36:12;;;;;;;4.10;2.88;;;;;;;29.85;32.38;95738.19;4949859;28;20110;-56
2023/04/22 10:39:02;;;;;;;3.40;2.80;;;;;;;30.77;32.10;95731.06;4956845;28;20082;-58
2023/04/22 10:41:32;;;;;;;5.00;2.67;;;;;;;31.09;31.72;95730.38;4953314;28;20530;-56
2023/04/22 10:44:01;;;;;;;4.10;3.28;;;;;;;30.98;30.95;95732.41;4961068;28;20079;-55
2023/04/22 10:46:59;;;;;;;4.33;3.10;;;;;;;31.81;30.47;95733.66;4959871;28;20589;-54
2023/04/22 10:49:31;;;;;;;3.70;2.92;;;;;;;31.82;30.20;95732.56;4955671;28;20142;-59
2023/04/22 10:52:02;;;;;;;3.60;2.50;;;;;;;30.70;30.10;95732.19;4953475;28;20086;-57
2023/04/22 10:55:02;;;;;;;4.68;2.72;;;;;;;31.68;31.36;95718.88;4958897;28;20478;-55
2023/04/22 10:57:39;;;;;;;4.85;2.30;;;;;;;31.94;30.82;95707.59;4962470;28;20090;-55
2023/04/22 11:00:31;;;;;;;4.50;3.45;;;;;;;30.93;30.32;95714.22;4957214;28;20551;-57
2023/04/22 11:03:26;;;;;;;3.03;2.30;;;;;;;31.56;30.12;95698.66;4948546;28;20546;-52
2023/04/22 11:06:13;;;;;;;3.40;2.20;;;;;;;31.26;30.74;95711.59;4954145;28;20082;-54
2023/04/22 11:08:45;;;;;;;4.10;2.38;;;;;;;31.78;29.71;95707.00;4953446;28;20082;-58
2023/04/22 11:11:13;;;;;;;3.17;2.47;;;;;;;31.70;30.79;95709.63;4963293;28;20078;-58
2023/04/22 11:13:42;;;;;;;5.35;2.30;;;;;;;31.44;30.00;95705.34;4957408;28;20073;-53
2023/04/22 11:16:11;;;;;;;3.20;2.20;;;;;;;31.28;29.37;95706.69;4963370;28;20063;-51
2023/04/22 11:18:41;;;;;;;3.47;2.45;;;;;;;31.44;29.55;95699.91;4956568;28;20078;-58
2023/04/22 11:21:09;;;;;;;4.32;2.53;;;;;;;31.66;30.00;95709.41;4968225;28;20078;-56
2023/04/22 11:23:37;;;;;;;8.75;3.05;;;;;;;31.40;30.24;95704.34;4953462;28;20536;-57
2023/04/22 11:26:06;;;;;;;3.67;2.45;;;;;;;31.39;29.64;95710.09;4958357;28;20089;-58
2023/04/22 11:28:35;;;;;;;2.78;2.33;;;;;;;31.26;29.24;95699.91;4957347;28;20083;-52
2023/04/22 11:31:05;;;;;;;4.35;2.30;;;;;;;30.76;29.63;95702.19;4957025;28;20075;-55
2023/04/22 11:33:34;;;;;;;2.67;2.13;;;;;;;31.96;29.01;95702.63;4956089;28;20082;-52
2023/04/22 11:36:05;;;;;;;2.80;2.10;;;;;;;32.64;28.67;95697.59;4952313;28;20075;-55
2023/04/22 11:38:33;;;;;;;2.28;1.83;;;;;;;31.72;29.37;95701.94;4956318;28;20082;-53
2023/04/22 11:41:03;;;;;;;5.53;2.20;;;;;;;32.25;28.83;95693.41;4956710;28;20089;-54
2023/04/22 11:43:32;;;;;;;2.58;2.08;;;;;;;32.00;28.50;95700.13;4959401;28;20071;-55
2023/04/22 11:46:01;;;;;;;3.70;1.92;;;;;;;32.06;26.98;95694.28;4953410;28;20073;-57
2023/04/22 11:48:29;;;;;;;2.92;1.90;;;;;;;30.68;30.08;95690.81;4965832;28;20074;-58